createdAt,value
2017-11-10T00:08:11.117Z,98968.45
2017-11-10T00:28:41.474Z,98971.22
2017-11-10T00:49:18.591Z,98940.05
2017-11-10T01:09:51.711Z,98951.59
2017-11-10T01:30:22.066Z,98939.58
2017-11-10T01:50:57.577Z,98945.03
2017-11-10T02:11:29.537Z,98922.20
2017-11-10T02:32:02.663Z,98857.83
2017-11-10T02:52:35.193Z,98845.31
2017-11-10T03:13:12.281Z,98866.16
2017-11-10T03:33:47.562Z,98844.09
2017-11-10T03:54:20.670Z,98842.00
2017-11-10T04:14:53.795Z,98793.44
2017-11-10T04:35:30.344Z,98779.63
2017-11-10T04:56:04.344Z,98787.08
2017-11-10T05:16:36.780Z,98782.59
2017-11-10T05:37:09.658Z,98762.44
2017-11-10T05:57:46.208Z,98729.67
2017-11-10T06:18:21.437Z,98730.33
2017-11-10T06:38:55.467Z,98699.30
2017-11-10T06:59:30.743Z,98667.64
2017-11-10T07:38:01.536Z,98625.64
2017-11-10T07:58:35.579Z,98618.97
2017-11-10T08:19:09.932Z,98602.64
2017-11-10T08:39:42.133Z,98584.31
2017-11-10T09:00:17.406Z,98580.77
2017-11-10T09:20:52.031Z,98553.52
2017-11-10T09:41:34.092Z,98534.09
2017-11-10T10:02:13.357Z,98527.48
2017-11-10T10:23:03.909Z,98505.14
2017-11-10T10:43:39.875Z,98429.84
2017-11-10T11:04:15.148Z,98387.75
2017-11-10T11:24:53.185Z,98386.13
2017-11-10T11:45:30.607Z,98362.33
2017-11-10T12:06:04.054Z,98312.19
2017-11-10T12:26:36.852Z,98272.91
2017-11-10T12:47:12.662Z,98259.14
2017-11-10T13:07:45.246Z,98249.52
2017-11-10T13:28:18.674Z,98222.12
2017-11-10T13:48:54.864Z,98225.78
2017-11-10T14:09:30.178Z,98209.40
2017-11-10T14:30:04.487Z,98216.30
2017-11-10T14:50:39.832Z,98221.91
2017-11-10T15:11:14.729Z,98191.27
2017-11-10T15:31:48.271Z,98184.10
2017-11-10T15:52:19.463Z,98184.75
2017-11-10T16:12:53.480Z,98189.70
2017-11-10T16:33:29.937Z,98192.72
2017-11-10T16:54:07.178Z,98212.97
2017-11-10T17:14:42.979Z,98229.84
2017-11-10T17:35:21.672Z,98248.11
2017-11-10T17:55:57.517Z,98274.93
2017-11-10T18:16:30.027Z,98288.69
2017-11-10T18:37:08.376Z,98303.30
2017-11-10T18:57:45.619Z,98308.37
2017-11-10T19:18:24.891Z,98331.42
2017-11-10T19:38:59.719Z,98361.54
2017-11-10T19:59:37.135Z,98400.33
2017-11-10T20:20:10.260Z,98408.27
2017-11-10T20:40:45.532Z,98403.41
2017-11-10T21:01:20.805Z,98406.66
2017-11-10T21:21:56.998Z,98412.78
2017-11-10T21:42:34.539Z,98414.80
2017-11-10T22:03:11.796Z,98415.86
2017-11-10T22:23:49.879Z,98442.55
2017-11-10T22:44:25.300Z,98448.92
2017-11-10T23:05:04.570Z,98432.81
2017-11-10T23:25:39.380Z,98429.35
2017-11-10T23:46:13.735Z,98439.48
